nws-alerts: Checking more than four warning/county codes can delay the loading of your pages. You should use a cron job to get the data.
EllijayWeather Historical Data
Daily Summary for February 08, 2019 Units:  English    Metric   Both
Daily Weekly Monthly Yearly
  High: Low: Average:
Temperature: 65.0 °F 36.0 °F 47 °F
Dew Point: 61.0 °F 20.0 °F 35.5 °F
Humidity: 96% 37% 66%
Wind Speed: 14mph 0mph 3.6mph
Wind Gust: 18mph - -
Wind- - WNW
Pressure: 30.5 in 30.1 in -
Precipitation: 0.100 in    
 
 
Tabular Data for February 08, 2019
Time Temperature Dew Point Pressure Wind Wind Speed Wind Gust Humidity Rainfall Rate (Hourly)
00:04 64.0 °F 59.0 °F 30.1 in Calm     84% 0.000 in
00:09 64.0 °F 60.0 °F 30.1 in East 1 mph 2 mph 84% 0.000 in
00:14 64.0 °F 60.0 °F 30.1 in Calm   2 mph 84% 0.000 in
00:19 64.0 °F 60.0 °F 30.1 in Calm   1 mph 85% 0.000 in
00:24 65.0 °F 60.0 °F 30.1 in East 1 mph 1 mph 85% 0.000 in
00:29 65.0 °F 60.0 °F 30.1 in Calm   1 mph 85% 0.000 in
00:34 65.0 °F 60.0 °F 30.1 in Calm     85% 0.000 in
00:39 65.0 °F 61.0 °F 30.1 in Calm   1 mph 87% 0.010 in
00:44 65.0 °F 61.0 °F 30.1 in Calm   1 mph 88% 0.010 in
00:49 64.0 °F 61.0 °F 30.1 in Calm   2 mph 89% 0.010 in
00:54 64.0 °F 61.0 °F 30.1 in Calm   1 mph 90% 0.010 in
00:59 64.0 °F 61.0 °F 30.1 in Calm   2 mph 91% 0.010 in
01:04 64.0 °F 61.0 °F 30.1 in South 1 mph 4 mph 92% 0.010 in
01:09 63.0 °F 61.0 °F 30.1 in South 1 mph 4 mph 92% 0.010 in
01:14 63.0 °F 61.0 °F 30.1 in Calm   2 mph 92% 0.010 in
01:19 63.0 °F 61.0 °F 30.1 in WNW 3 mph 3 mph 93% 0.020 in
01:24 63.0 °F 61.0 °F 30.1 in NNW 3 mph 6 mph 94% 0.030 in
01:29 63.0 °F 61.0 °F 30.1 in WNW 3 mph 3 mph 93% 0.030 in
01:34 62.0 °F 60.0 °F 30.1 in NNW 1 mph 2 mph 93% 0.040 in
01:39 62.0 °F 60.0 °F 30.1 in NW 6 mph 6 mph 93% 0.040 in
01:44 61.0 °F 59.0 °F 30.1 in SSW 1 mph 2 mph 94% 0.040 in
01:49 61.0 °F 59.0 °F 30.1 in Calm   2 mph 94% 0.040 in
01:54 61.0 °F 59.0 °F 30.1 in NW 4 mph 7 mph 93% 0.040 in
01:59 60.0 °F 58.0 °F 30.1 in West 2 mph 3 mph 93% 0.050 in
02:04 60.0 °F 58.0 °F 30.1 in West 6 mph 6 mph 93% 0.060 in
02:09 60.0 °F 58.0 °F 30.1 in NW 12 mph 12 mph 94% 0.060 in
02:14 59.0 °F 57.0 °F 30.1 in WNW 4 mph 12 mph 94% 0.060 in
02:19 59.0 °F 56.0 °F 30.1 in NW 6 mph 9 mph 92% 0.060 in
02:24 58.0 °F 55.0 °F 30.1 in West 6 mph 10 mph 91% 0.050 in
02:29 57.0 °F 54.0 °F 30.1 in WNW 3 mph 8 mph 91% 0.050 in
02:34 56.0 °F 54.0 °F 30.1 in NNW 2 mph 5 mph 92% 0.050 in
02:39 56.0 °F 53.0 °F 30.1 in NW 3 mph 6 mph 92% 0.040 in
02:44 55.0 °F 53.0 °F 30.1 in WNW 2 mph 5 mph 93% 0.040 in
02:49 55.0 °F 53.0 °F 30.1 in WNW 2 mph 2 mph 93% 0.040 in
02:54 55.0 °F 53.0 °F 30.1 in NNW 1 mph 3 mph 94% 0.040 in
02:59 54.0 °F 53.0 °F 30.1 in NNW 2 mph 3 mph 94% 0.040 in
03:04 54.0 °F 53.0 °F 30.1 in NW 1 mph 1 mph 94% 0.040 in
03:09 54.0 °F 53.0 °F 30.1 in Calm     94% 0.030 in
03:14 54.0 °F 53.0 °F 30.1 in NNW 2 mph 2 mph 95% 0.030 in
03:19 54.0 °F 53.0 °F 30.1 in NNW 1 mph 1 mph 95% 0.030 in
03:24 54.0 °F 52.0 °F 30.1 in Calm     95% 0.030 in
03:29 54.0 °F 52.0 °F 30.1 in North 1 mph 1 mph 95% 0.020 in
03:34 54.0 °F 52.0 °F 30.1 in Calm     95% 0.020 in
03:39 53.0 °F 52.0 °F 30.1 in Calm     95% 0.020 in
03:44 53.0 °F 52.0 °F 30.1 in Calm     95% 0.020 in
03:49 53.0 °F 52.0 °F 30.1 in Calm     95% 0.020 in
03:54 53.0 °F 52.0 °F 30.1 in Calm     95% 0.010 in
03:59 53.0 °F 52.0 °F 30.1 in Calm     95% 0.010 in
04:04 53.0 °F 52.0 °F 30.1 in Calm     95% 0.010 in
04:09 53.0 °F 52.0 °F 30.1 in Calm     96% 0.000 in
04:14 53.0 °F 52.0 °F 30.1 in Calm     95% 0.000 in
04:19 53.0 °F 52.0 °F 30.2 in Calm     96% 0.000 in
04:24 53.0 °F 52.0 °F 30.2 in Calm     96% 0.000 in
04:29 53.0 °F 51.0 °F 30.2 in Calm     95% 0.000 in
04:34 52.0 °F 51.0 °F 30.2 in Calm     95% 0.000 in
04:39 52.0 °F 51.0 °F 30.2 in Calm     95% 0.000 in
04:44 52.0 °F 51.0 °F 30.2 in Calm   3 mph 95% 0.000 in
04:49 52.0 °F 51.0 °F 30.2 in Calm   1 mph 96% 0.000 in
04:54 52.0 °F 50.0 °F 30.2 in Calm   1 mph 95% 0.000 in
04:59 52.0 °F 50.0 °F 30.2 in Calm   1 mph 95% 0.000 in
05:04 52.0 °F 50.0 °F 30.2 in North 1 mph 1 mph 95% 0.000 in
05:09 51.0 °F 50.0 °F 30.2 in WNW 2 mph 3 mph 95% 0.000 in
05:14 51.0 °F 50.0 °F 30.2 in West 2 mph 3 mph 95% 0.000 in
05:19 51.0 °F 50.0 °F 30.2 in North 6 mph 6 mph 94% 0.000 in
05:24 51.0 °F 50.0 °F 30.2 in West 2 mph 6 mph 93% 0.000 in
05:29 51.0 °F 50.0 °F 30.2 in North 1 mph 4 mph 93% 0.000 in
05:34 51.0 °F 49.0 °F 30.2 in North 5 mph 5 mph 91% 0.000 in
05:39 51.0 °F 48.0 °F 30.2 in WNW 2 mph 5 mph 90% 0.000 in
05:44 51.0 °F 48.0 °F 30.2 in West 2 mph 3 mph 90% 0.000 in
05:49 51.0 °F 48.0 °F 30.2 in NNW 1 mph 3 mph 91% 0.000 in
05:54 50.0 °F 47.0 °F 30.2 in North 3 mph 5 mph 90% 0.000 in
05:59 50.0 °F 48.0 °F 30.2 in Calm     92% 0.000 in
06:04 50.0 °F 48.0 °F 30.2 in NW 3 mph 3 mph 92% 0.000 in
06:09 50.0 °F 47.0 °F 30.2 in WNW 6 mph 6 mph 89% 0.000 in
06:14 50.0 °F 46.0 °F 30.2 in West 2 mph 5 mph 88% 0.000 in
06:19 49.0 °F 46.0 °F 30.2 in NW 2 mph 5 mph 88% 0.000 in
06:24 49.0 °F 46.0 °F 30.2 in NW 2 mph 4 mph 89% 0.000 in
06:29 49.0 °F 46.0 °F 30.2 in West 2 mph 4 mph 90% 0.000 in
06:34 49.0 °F 46.0 °F 30.2 in Calm   4 mph 90% 0.000 in
06:39 49.0 °F 46.0 °F 30.2 in NW 4 mph 8 mph 90% 0.000 in
06:44 48.0 °F 46.0 °F 30.2 in West 3 mph 7 mph 90% 0.000 in
06:49 48.0 °F 45.0 °F 30.2 in WNW 5 mph 10 mph 90% 0.000 in
06:54 48.0 °F 45.0 °F 30.2 in NW 3 mph 5 mph 90% 0.000 in
06:59 48.0 °F 45.0 °F 30.2 in NW 1 mph 5 mph 89% 0.000 in
07:04 48.0 °F 45.0 °F 30.2 in NW 4 mph 4 mph 89% 0.000 in
07:09 48.0 °F 44.0 °F 30.2 in WNW 1 mph 2 mph 88% 0.000 in
07:14 48.0 °F 44.0 °F 30.2 in WNW 1 mph 3 mph 89% 0.000 in
07:19 47.0 °F 43.0 °F 30.3 in NW 4 mph 4 mph 85% 0.000 in
07:24 47.0 °F 42.0 °F 30.3 in WNW 6 mph 6 mph 84% 0.000 in
07:29 47.0 °F 42.0 °F 30.2 in WNW 2 mph 6 mph 84% 0.000 in
07:34 47.0 °F 42.0 °F 30.3 in NW 2 mph 6 mph 84% 0.000 in
07:39 46.0 °F 42.0 °F 30.3 in NW 2 mph 5 mph 84% 0.000 in
07:44 46.0 °F 42.0 °F 30.3 in NNW 1 mph 5 mph 84% 0.000 in
07:49 46.0 °F 41.0 °F 30.3 in NW 4 mph 7 mph 83% 0.000 in
07:54 46.0 °F 41.0 °F 30.3 in NNW 4 mph 7 mph 83% 0.000 in
07:59 46.0 °F 40.0 °F 30.3 in WNW 3 mph 7 mph 81% 0.000 in
08:04 46.0 °F 41.0 °F 30.3 in WNW 2 mph 3 mph 83% 0.000 in
08:09 45.0 °F 40.0 °F 30.3 in Calm   3 mph 82% 0.000 in
08:14 45.0 °F 40.0 °F 30.3 in WNW 3 mph 5 mph 81% 0.000 in
08:19 45.0 °F 40.0 °F 30.3 in WNW 6 mph 11 mph 83% 0.000 in
08:24 45.0 °F 40.0 °F 30.3 in NNW 3 mph 8 mph 81% 0.000 in
08:29 45.0 °F 39.0 °F 30.3 in WNW 1 mph 8 mph 80% 0.000 in
08:34 45.0 °F 40.0 °F 30.3 in NW 11 mph 11 mph 82% 0.000 in
08:39 45.0 °F 39.0 °F 30.3 in WNW 5 mph 11 mph 82% 0.000 in
08:44 44.0 °F 39.0 °F 30.3 in North 2 mph 6 mph 81% 0.000 in
08:49 44.0 °F 39.0 °F 30.3 in NW 5 mph 6 mph 80% 0.000 in
08:54 44.0 °F 38.0 °F 30.3 in NW 3 mph 6 mph 80% 0.000 in
08:59 44.0 °F 38.0 °F 30.3 in West 4 mph 6 mph 80% 0.000 in
09:04 44.0 °F 38.0 °F 30.3 in NW 2 mph 6 mph 80% 0.000 in
09:09 43.0 °F 37.0 °F 30.3 in WNW 6 mph 9 mph 79% 0.000 in
09:14 44.0 °F 37.0 °F 30.3 in Calm   4 mph 79% 0.000 in
09:19 44.0 °F 38.0 °F 30.3 in WNW 2 mph 5 mph 79% 0.000 in
09:24 44.0 °F 38.0 °F 30.3 in WNW 4 mph 8 mph 78% 0.000 in
09:29 45.0 °F 37.0 °F 30.3 in NNE 4 mph 8 mph 75% 0.000 in
09:34 45.0 °F 36.0 °F 30.3 in NW 8 mph 8 mph 72% 0.000 in
09:39 45.0 °F 36.0 °F 30.3 in WNW 6 mph 11 mph 71% 0.000 in
09:44 45.0 °F 36.0 °F 30.3 in WNW 2 mph 8 mph 69% 0.000 in
09:49 46.0 °F 37.0 °F 30.3 in NW 8 mph 9 mph 72% 0.000 in
09:54 46.0 °F 36.0 °F 30.3 in NNW 5 mph 8 mph 69% 0.000 in
09:59 46.0 °F 37.0 °F 30.3 in NW 2 mph 7 mph 68% 0.000 in
10:04 47.0 °F 37.0 °F 30.3 in WNW 2 mph 6 mph 68% 0.000 in
10:09 47.0 °F 36.0 °F 30.3 in NW 5 mph 10 mph 66% 0.000 in
10:14 47.0 °F 36.0 °F 30.3 in NNE 7 mph 7 mph 66% 0.000 in
10:19 47.0 °F 37.0 °F 30.4 in NNW 4 mph 9 mph 67% 0.000 in
10:24 48.0 °F 37.0 °F 30.4 in WNW 4 mph 9 mph 68% 0.000 in
10:29 48.0 °F 36.0 °F 30.4 in WNW 5 mph 10 mph 63% 0.000 in
10:34 47.0 °F 34.0 °F 30.4 in NW 10 mph 10 mph 60% 0.000 in
10:39 47.0 °F 34.0 °F 30.4 in NNW 3 mph 5 mph 60% 0.000 in
10:44 47.0 °F 32.0 °F 30.4 in NNE 2 mph 5 mph 55% 0.000 in
10:49 47.0 °F 30.0 °F 30.4 in NW 3 mph 4 mph 52% 0.000 in
10:54 47.0 °F 30.0 °F 30.4 in NNW 4 mph 5 mph 50% 0.000 in
10:59 47.0 °F 30.0 °F 30.4 in North 2 mph 6 mph 52% 0.000 in
11:04 47.0 °F 33.0 °F 30.4 in NNW 7 mph 10 mph 57% 0.000 in
11:09 47.0 °F 32.0 °F 30.4 in NNW 6 mph 10 mph 57% 0.000 in
11:14 46.0 °F 32.0 °F 30.4 in NE 7 mph 7 mph 57% 0.000 in
11:19 45.0 °F 32.0 °F 30.4 in NW 4 mph 6 mph 58% 0.000 in
11:24 45.0 °F 32.0 °F 30.4 in NNW 2 mph 6 mph 60% 0.000 in
11:29 45.0 °F 32.0 °F 30.4 in WNW 2 mph 5 mph 61% 0.000 in
11:34 45.0 °F 32.0 °F 30.4 in NE 1 mph 5 mph 61% 0.000 in
11:39 45.0 °F 33.0 °F 30.4 in North 4 mph 5 mph 62% 0.000 in
11:44 45.0 °F 32.0 °F 30.4 in NE 6 mph 9 mph 60% 0.000 in
11:49 45.0 °F 32.0 °F 30.4 in NNE 4 mph 9 mph 60% 0.000 in
11:54 46.0 °F 33.0 °F 30.4 in NW 2 mph 3 mph 61% 0.000 in
11:59 46.0 °F 33.0 °F 30.4 in WNW 1 mph 7 mph 60% 0.000 in
12:04 46.0 °F 33.0 °F 30.4 in North 2 mph 3 mph 60% 0.000 in
12:09 46.0 °F 33.0 °F 30.4 in NW 2 mph 3 mph 60% 0.000 in
12:14 47.0 °F 33.0 °F 30.4 in NNW 3 mph 8 mph 58% 0.000 in
12:19 47.0 °F 33.0 °F 30.4 in North 4 mph 8 mph 57% 0.000 in
12:24 48.0 °F 33.0 °F 30.4 in WNW 1 mph 4 mph 58% 0.000 in
12:29 48.0 °F 33.0 °F 30.4 in NNW 6 mph 7 mph 57% 0.000 in
12:34 48.0 °F 33.0 °F 30.4 in NNW 5 mph 7 mph 57% 0.000 in
12:39 48.0 °F 33.0 °F 30.4 in WNW 5 mph 5 mph 56% 0.000 in
12:44 48.0 °F 33.0 °F 30.4 in NNW 6 mph 6 mph 57% 0.000 in
12:49 47.0 °F 32.0 °F 30.4 in North 4 mph 7 mph 56% 0.000 in
12:54 47.0 °F 32.0 °F 30.4 in NE 2 mph 4 mph 56% 0.000 in
12:59 47.0 °F 32.0 °F 30.4 in WNW 4 mph 5 mph 56% 0.000 in
13:04 48.0 °F 32.0 °F 30.4 in NNW 5 mph 9 mph 55% 0.000 in
13:09 48.0 °F 30.0 °F 30.4 in WNW 5 mph 9 mph 51% 0.000 in
13:14 48.0 °F 31.0 °F 30.4 in North 5 mph 7 mph 52% 0.000 in
13:19 48.0 °F 30.0 °F 30.4 in NW 6 mph 10 mph 49% 0.000 in
13:24 48.0 °F 29.0 °F 30.4 in WNW 7 mph 7 mph 48% 0.000 in
13:29 48.0 °F 29.0 °F 30.4 in NW 5 mph 8 mph 49% 0.000 in
13:34 47.0 °F 29.0 °F 30.4 in NW 4 mph 9 mph 49% 0.000 in
13:39 48.0 °F 30.0 °F 30.4 in North 3 mph 4 mph 51% 0.000 in
13:44 48.0 °F 29.0 °F 30.4 in NNW 7 mph 7 mph 49% 0.000 in
13:49 48.0 °F 28.0 °F 30.4 in NW 4 mph 7 mph 47% 0.000 in
13:54 48.0 °F 28.0 °F 30.4 in WNW 3 mph 7 mph 47% 0.000 in
13:59 48.0 °F 29.0 °F 30.4 in NW 7 mph 10 mph 48% 0.000 in
14:04 47.0 °F 28.0 °F 30.4 in NW 5 mph 10 mph 47% 0.000 in
14:09 47.0 °F 29.0 °F 30.4 in NW 2 mph 6 mph 49% 0.000 in
14:14 48.0 °F 29.0 °F 30.4 in WNW 3 mph 5 mph 49% 0.000 in
14:19 48.0 °F 30.0 °F 30.4 in NW 4 mph 11 mph 51% 0.000 in
14:24 48.0 °F 28.0 °F 30.4 in North 4 mph 11 mph 48% 0.000 in
14:29 47.0 °F 29.0 °F 30.4 in West 3 mph 4 mph 50% 0.000 in
14:34 47.0 °F 29.0 °F 30.4 in NNW 5 mph 7 mph 49% 0.000 in
14:39 47.0 °F 28.0 °F 30.4 in NNW 2 mph 6 mph 48% 0.000 in
14:44 47.0 °F 26.0 °F 30.4 in NNW 6 mph 7 mph 43% 0.000 in
14:49 47.0 °F 26.0 °F 30.4 in North 1 mph 7 mph 44% 0.000 in
14:54 48.0 °F 26.0 °F 30.4 in NW 5 mph 8 mph 42% 0.000 in
14:59 48.0 °F 26.0 °F 30.4 in NNW 4 mph 9 mph 43% 0.000 in
15:04 48.0 °F 25.0 °F 30.4 in NW 6 mph 9 mph 41% 0.000 in
15:09 47.0 °F 23.0 °F 30.4 in NW 6 mph 9 mph 38% 0.000 in
15:14 47.0 °F 24.0 °F 30.4 in NNW 5 mph 5 mph 40% 0.000 in
15:19 47.0 °F 23.0 °F 30.4 in NW 7 mph 7 mph 38% 0.000 in
15:24 47.0 °F 22.0 °F 30.4 in WNW 7 mph 7 mph 37% 0.000 in
15:29 47.0 °F 22.0 °F 30.4 in NE 2 mph 7 mph 38% 0.000 in
15:34 47.0 °F 22.0 °F 30.4 in NW 6 mph 9 mph 38% 0.000 in
15:39 47.0 °F 23.0 °F 30.4 in Calm   5 mph 39% 0.000 in
15:44 46.0 °F 23.0 °F 30.4 in Calm   2 mph 39% 0.000 in
15:49 46.0 °F 23.0 °F 30.4 in NNW 4 mph 4 mph 39% 0.000 in
15:54 46.0 °F 23.0 °F 30.4 in NNE 4 mph 5 mph 40% 0.000 in
15:59 46.0 °F 23.0 °F 30.4 in WNW 6 mph 8 mph 39% 0.000 in
16:04 46.0 °F 22.0 °F 30.4 in WNW 3 mph 6 mph 39% 0.000 in
16:09 46.0 °F 22.0 °F 30.4 in NNW 7 mph 8 mph 39% 0.000 in
16:14 46.0 °F 23.0 °F 30.4 in Calm   2 mph 41% 0.000 in
16:19 46.0 °F 23.0 °F 30.4 in NNW 6 mph 9 mph 41% 0.000 in
16:24 46.0 °F 23.0 °F 30.4 in WNW 8 mph 10 mph 40% 0.000 in
16:29 46.0 °F 22.0 °F 30.4 in North 8 mph 10 mph 38% 0.000 in
16:34 45.0 °F 22.0 °F 30.4 in WNW 2 mph 8 mph 39% 0.000 in
16:39 45.0 °F 23.0 °F 30.4 in NNW 4 mph 4 mph 41% 0.000 in
16:44 45.0 °F 22.0 °F 30.4 in WNW 5 mph 7 mph 39% 0.000 in
16:49 45.0 °F 22.0 °F 30.4 in North 7 mph 8 mph 39% 0.000 in
16:54 45.0 °F 22.0 °F 30.4 in WNW 2 mph 4 mph 40% 0.000 in
16:59 45.0 °F 23.0 °F 30.4 in WNW 3 mph 10 mph 41% 0.000 in
17:04 45.0 °F 23.0 °F 30.4 in North 3 mph 10 mph 42% 0.000 in
17:09 45.0 °F 22.0 °F 30.4 in NW 6 mph 10 mph 41% 0.000 in
17:14 45.0 °F 23.0 °F 30.4 in North 3 mph 7 mph 42% 0.000 in
17:19 44.0 °F 23.0 °F 30.4 in NNW 9 mph 11 mph 42% 0.000 in
17:24 44.0 °F 24.0 °F 30.4 in NNW 4 mph 9 mph 44% 0.000 in
17:29 44.0 °F 24.0 °F 30.4 in WNW 2 mph 9 mph 45% 0.000 in
17:34 44.0 °F 24.0 °F 30.4 in WNW 1 mph 3 mph 47% 0.000 in
17:39 43.0 °F 24.0 °F 30.4 in NW 2 mph 6 mph 47% 0.000 in
17:44 43.0 °F 24.0 °F 30.4 in Calm   4 mph 47% 0.000 in
17:49 43.0 °F 25.0 °F 30.5 in NNW 2 mph 5 mph 49% 0.000 in
17:54 42.0 °F 25.0 °F 30.5 in NW 5 mph 7 mph 50% 0.000 in
17:59 42.0 °F 25.0 °F 30.5 in NNW 3 mph 6 mph 50% 0.000 in
18:04 42.0 °F 24.0 °F 30.5 in NW 4 mph 8 mph 48% 0.000 in
18:09 42.0 °F 25.0 °F 30.5 in NW 7 mph 7 mph 51% 0.000 in
18:14 42.0 °F 24.0 °F 30.5 in NNE 1 mph 7 mph 50% 0.000 in
18:19 42.0 °F 25.0 °F 30.5 in NW 3 mph 6 mph 51% 0.000 in
18:24 41.0 °F 26.0 °F 30.5 in NNE 2 mph 4 mph 53% 0.000 in
18:29 41.0 °F 25.0 °F 30.5 in NW 1 mph 3 mph 52% 0.000 in
18:34 41.0 °F 25.0 °F 30.5 in Calm   1 mph 53% 0.000 in
18:39 41.0 °F 25.0 °F 30.5 in WNW 3 mph 5 mph 53% 0.000 in
18:44 41.0 °F 25.0 °F 30.5 in NW 1 mph 4 mph 54% 0.000 in
18:49 41.0 °F 26.0 °F 30.5 in NW 3 mph 4 mph 55% 0.000 in
18:54 41.0 °F 26.0 °F 30.5 in NW 1 mph 1 mph 56% 0.000 in
18:59 40.0 °F 26.0 °F 30.5 in NW 1 mph 1 mph 57% 0.000 in
19:04 40.0 °F 26.0 °F 30.5 in North 2 mph 5 mph 57% 0.000 in
19:09 40.0 °F 25.0 °F 30.5 in NW 2 mph 2 mph 56% 0.000 in
19:14 40.0 °F 26.0 °F 30.5 in Calm   2 mph 58% 0.000 in
19:19 40.0 °F 26.0 °F 30.5 in NW 4 mph 4 mph 57% 0.000 in
19:24 39.0 °F 25.0 °F 30.5 in North 1 mph 4 mph 57% 0.000 in
19:29 39.0 °F 25.0 °F 30.5 in NW 3 mph 5 mph 57% 0.000 in
19:34 39.0 °F 25.0 °F 30.5 in Calm   1 mph 57% 0.000 in
19:39 39.0 °F 25.0 °F 30.5 in Calm   1 mph 57% 0.000 in
19:44 39.0 °F 25.0 °F 30.5 in NNW 2 mph 2 mph 56% 0.000 in
19:49 39.0 °F 25.0 °F 30.5 in NNW 5 mph 5 mph 56% 0.000 in
19:54 39.0 °F 24.0 °F 30.5 in NW 3 mph 6 mph 55% 0.000 in
19:59 39.0 °F 23.0 °F 30.5 in North 5 mph 7 mph 52% 0.000 in
20:04 39.0 °F 23.0 °F 30.5 in NNW 4 mph 6 mph 52% 0.000 in
20:09 39.0 °F 23.0 °F 30.5 in NNW 3 mph 5 mph 51% 0.000 in
20:14 39.0 °F 22.0 °F 30.5 in North 2 mph 6 mph 49% 0.000 in
20:19 39.0 °F 22.0 °F 30.5 in West 3 mph 5 mph 50% 0.000 in
20:24 39.0 °F 21.0 °F 30.5 in NNW 10 mph 11 mph 48% 0.000 in
20:29 39.0 °F 21.0 °F 30.5 in North 6 mph 10 mph 48% 0.000 in
20:34 39.0 °F 21.0 °F 30.5 in NW 5 mph 7 mph 47% 0.000 in
20:39 39.0 °F 21.0 °F 30.5 in NW 5 mph 8 mph 48% 0.000 in
20:44 39.0 °F 21.0 °F 30.5 in WNW 3 mph 7 mph 48% 0.000 in
20:49 39.0 °F 21.0 °F 30.5 in NW 2 mph 7 mph 48% 0.000 in
20:54 39.0 °F 21.0 °F 30.5 in NNW 3 mph 5 mph 49% 0.000 in
20:59 39.0 °F 21.0 °F 30.5 in NNW 4 mph 6 mph 49% 0.000 in
21:04 39.0 °F 21.0 °F 30.5 in WNW 6 mph 8 mph 49% 0.000 in
21:09 39.0 °F 21.0 °F 30.5 in NNW 4 mph 8 mph 48% 0.000 in
21:14 39.0 °F 21.0 °F 30.5 in WNW 5 mph 7 mph 48% 0.000 in
21:19 39.0 °F 20.0 °F 30.5 in North 5 mph 6 mph 47% 0.000 in
21:24 39.0 °F 20.0 °F 30.5 in North 7 mph 7 mph 47% 0.000 in
21:29 38.0 °F 21.0 °F 30.5 in NE 8 mph 8 mph 49% 0.000 in
21:34 38.0 °F 20.0 °F 30.5 in NNW 9 mph 12 mph 48% 0.000 in
21:39 38.0 °F 20.0 °F 30.5 in NW 8 mph 9 mph 48% 0.000 in
21:44 38.0 °F 20.0 °F 30.5 in NNW 14 mph 14 mph 47% 0.000 in
21:49 38.0 °F 20.0 °F 30.5 in NW 3 mph 14 mph 47% 0.000 in
21:54 38.0 °F 20.0 °F 30.5 in WNW 9 mph 13 mph 48% 0.000 in
21:59 38.0 °F 20.0 °F 30.5 in NNW 10 mph 16 mph 48% 0.000 in
22:04 38.0 °F 20.0 °F 30.5 in WNW 8 mph 8 mph 48% 0.000 in
22:09 38.0 °F 20.0 °F 30.5 in NNW 12 mph 12 mph 48% 0.000 in
22:14 37.0 °F 20.0 °F 30.5 in NW 13 mph 13 mph 49% 0.000 in
22:19 37.0 °F 20.0 °F 30.5 in NNW 8 mph 13 mph 49% 0.000 in
22:24 37.0 °F 20.0 °F 30.5 in NNW 9 mph 11 mph 50% 0.000 in
22:29 37.0 °F 20.0 °F 30.5 in NW 6 mph 9 mph 50% 0.000 in
22:34 37.0 °F 21.0 °F 30.5 in West 8 mph 8 mph 51% 0.000 in
22:39 37.0 °F 21.0 °F 30.5 in NW 10 mph 10 mph 52% 0.000 in
22:44 37.0 °F 21.0 °F 30.5 in WNW 8 mph 11 mph 52% 0.000 in
22:49 37.0 °F 21.0 °F 30.5 in NNW 5 mph 6 mph 52% 0.000 in
22:54 37.0 °F 21.0 °F 30.5 in NW 6 mph 13 mph 52% 0.000 in
22:59 37.0 °F 21.0 °F 30.5 in NNW 7 mph 11 mph 52% 0.000 in
23:04 36.0 °F 21.0 °F 30.5 in NNE 10 mph 11 mph 53% 0.000 in
23:09 36.0 °F 21.0 °F 30.5 in WNW 3 mph 12 mph 53% 0.000 in
23:14 36.0 °F 22.0 °F 30.5 in NW 5 mph 9 mph 55% 0.000 in
23:19 36.0 °F 21.0 °F 30.5 in NW 7 mph 15 mph 54% 0.000 in
23:24 36.0 °F 21.0 °F 30.5 in NNE 8 mph 15 mph 53% 0.000 in
23:29 36.0 °F 21.0 °F 30.5 in WNW 5 mph 14 mph 54% 0.000 in
23:34 36.0 °F 22.0 °F 30.5 in NW 10 mph 12 mph 55% 0.000 in
23:39 36.0 °F 22.0 °F 30.5 in WNW 7 mph 18 mph 55% 0.000 in
23:44 36.0 °F 22.0 °F 30.5 in NNW 8 mph 8 mph 55% 0.000 in
23:49 36.0 °F 22.0 °F 30.5 in NW 3 mph 8 mph 56% 0.000 in
23:54 36.0 °F 21.0 °F 30.5 in NW 9 mph 10 mph 55% 0.000 in
23:59 36.0 °F 22.0 °F 30.5 in NW 4 mph 10 mph 57% 0.000 in
East Ellijay Weather
Compliments of Weather Underground - 2 mb